Hlavní strana
METAR-TAF:

METAR-TAF

Letiště :

Chartúm, Súdán

zeměpisná šířka: 15-36N, zeměpisná délka: 032-33E, výška: 382 m

Aktuální stav počasí

Zpráva byla vytvořena před 34 minutami, v 04:00 UTC
Severní vítr 6 kt
Teplota 17°C
Vlhkost vzduchu 32%
Tlak 1016 hPa
Viditelnost 10 km a více
Žádná oblačnost pod 1500 m, nevyskytují se cumulonimby.

METAR: HSSS 170400Z 36006KT CAVOK 17/00 Q1016 NOSIG

Čas: 07:34 (04:34 UTC)

Předpověď počasí

Zpráva byla vytvořena před 5 hodinami a 34 minutami, v 23:00 UTC
Předpověď platná od 17 v 00 UTC do 18 v 06 UTC
Severoseverozápadní vítr 8 kt s nárazy do 18 kt
Viditelnost 10 km a více
Žádná oblačnost pod 1500 m, nevyskytují se cumulonimby.
Dočasný
od 17 v 07 UTC do 17 v 16 UTC
Severoseverovýchodní vítr 10 kt s nárazy do 20 kt

TAF: HSSS 162300Z 1700/1806 34008G18KT CAVOK TEMPO 1707/1716 03010G20KT

Stav a předpovědi počasí z více než 4 000 letišť (zprávy METAR a TAF).

Červené a žluté tečky na mapě představují dostupné meteorologické stanice.

Když kurzor umístíte na tečku, zobrazí se název stanice.

Pak kliknutím zobrazíte stav a předpověď počasí.

Chcete-li změnit mapu, kliknutím na zelené tlačítko se znaménkem +mapu přiblížíte, kliknutím na zelené tlačítko se znaménkem – mapu oddálíte a kliknutím na zelené šipky přejdete na sousední mapy.


METAR-TAF: